Time;durP1;ratioP1;P1;durP2;ratioP2;P2;SDS_P1;SDS_P2;PMS_P1;PMS_P2;Temp;Humidity;BMP_temperature;BMP_pressure;BME280_temperature;BME280_humidity;BME280_pressure;Samples;Min_cycle;Max_cycle;Signal;HPM_P1;HPM_P2
2022/03/10 00:02:06;;;;;;;0.00;0.00;;;10.40;99.90;;;;;;4974662;28;20030;-75
2022/03/10 00:04:33;;;;;;;0.00;0.00;;;10.40;99.90;;;;;;4973113;28;20033;-72
2022/03/10 00:06:59;;;;;;;0.00;0.00;;;10.50;99.90;;;;;;4974699;28;20031;-72
2022/03/10 00:09:25;;;;;;;0.00;0.00;;;10.50;99.90;;;;;;4974498;28;20074;-75
2022/03/10 00:11:51;;;;;;;0.15;0.10;;;10.50;99.90;;;;;;4974657;28;20038;-72
2022/03/10 00:14:16;;;;;;;0.13;0.13;;;10.50;99.90;;;;;;4974871;28;20022;-75
2022/03/10 00:16:42;;;;;;;0.10;0.10;;;10.40;99.90;;;;;;4973815;28;20035;-75
2022/03/10 00:19:08;;;;;;;0.10;0.10;;;10.40;99.90;;;;;;4974618;28;20065;-73
2022/03/10 00:21:33;;;;;;;0.80;0.70;;;10.40;99.90;;;;;;4974908;28;20027;-75
2022/03/10 00:23:59;;;;;;;0.10;0.10;;;10.50;99.90;;;;;;4974339;28;20034;-75
2022/03/10 00:26:25;;;;;;;0.40;0.40;;;10.50;99.90;;;;;;4974677;28;20038;-75
2022/03/10 00:28:50;;;;;;;0.00;0.00;;;10.50;99.90;;;;;;4973800;28;20019;-75
2022/03/10 00:31:16;;;;;;;0.25;0.25;;;10.60;99.90;;;;;;4974547;28;20080;-73
2022/03/10 00:33:42;;;;;;;3.20;0.40;;;10.70;99.90;;;;;;4974444;28;20027;-75
2022/03/10 00:36:07;;;;;;;1.55;0.32;;;10.90;99.90;;;;;;4974491;28;20467;-73
2022/03/10 00:38:33;;;;;;;0.20;0.20;;;11.00;99.90;;;;;;4974296;28;20102;-75
2022/03/10 00:40:59;;;;;;;0.30;0.30;;;11.10;99.90;;;;;;4973127;28;20031;-74
2022/03/10 00:43:26;;;;;;;0.30;0.30;;;11.10;99.90;;;;;;4974391;28;20028;-73
2022/03/10 00:45:52;;;;;;;0.30;0.30;;;11.20;99.90;;;;;;4974338;28;20050;-75
2022/03/10 00:48:17;;;;;;;0.13;0.13;;;11.20;99.90;;;;;;4974197;28;20023;-76
2022/03/10 00:50:43;;;;;;;1.65;1.25;;;11.30;99.90;;;;;;4986403;28;20034;-76
2022/03/10 00:53:10;;;;;;;0.40;0.30;;;11.30;99.90;;;;;;4992874;28;20102;-75
2022/03/10 00:55:35;;;;;;;2.83;0.85;;;11.30;99.90;;;;;;4993269;28;20034;-74
2022/03/10 00:58:01;;;;;;;0.40;0.30;;;11.40;99.90;;;;;;4993929;28;20084;-73
2022/03/10 01:00:28;;;;;;;0.15;0.15;;;11.40;99.90;;;;;;4993707;28;20482;-74
2022/03/10 01:02:55;;;;;;;0.30;0.30;;;11.40;99.90;;;;;;4992599;28;20026;-73
2022/03/10 01:05:21;;;;;;;2.10;0.50;;;11.40;99.90;;;;;;4993260;28;20027;-75
2022/03/10 01:07:47;;;;;;;0.55;0.52;;;11.30;99.90;;;;;;4993473;28;20493;-74
2022/03/10 01:10:14;;;;;;;0.05;0.05;;;11.30;99.90;;;;;;4993562;28;20027;-73
2022/03/10 01:12:42;;;;;;;0.28;0.28;;;11.30;99.90;;;;;;4992831;28;20504;-73
2022/03/10 01:15:09;;;;;;;1.58;1.48;;;11.30;99.90;;;;;;4993248;28;20023;-75
2022/03/10 01:17:35;;;;;;;1.25;0.52;;;11.30;99.90;;;;;;4992769;28;20022;-74
2022/03/10 01:20:01;;;;;;;1.30;0.35;;;11.40;99.90;;;;;;4993620;28;20030;-75
2022/03/10 01:22:27;;;;;;;1.85;0.88;;;11.40;99.90;;;;;;4993620;28;20057;-75
2022/03/10 01:24:52;;;;;;;0.10;0.10;;;11.40;99.90;;;;;;4993215;28;20023;-75
2022/03/10 01:27:18;;;;;;;1.33;0.60;;;11.30;99.90;;;;;;4992510;28;20041;-75
2022/03/10 01:29:44;;;;;;;0.52;0.35;;;11.30;99.90;;;;;;4992672;28;20437;-73
2022/03/10 01:32:11;;;;;;;0.20;0.20;;;11.30;99.90;;;;;;4993277;28;20026;-73
2022/03/10 01:34:36;;;;;;;1.05;0.40;;;11.30;99.90;;;;;;4991913;28;20025;-75
2022/03/10 01:37:02;;;;;;;0.13;0.13;;;11.30;99.90;;;;;;4993187;28;20035;-74
2022/03/10 01:39:28;;;;;;;4.97;1.85;;;11.30;99.90;;;;;;4992931;28;20430;-75
2022/03/10 01:41:54;;;;;;;0.47;0.43;;;11.40;99.90;;;;;;4993234;28;20034;-73
2022/03/10 01:44:21;;;;;;;0.10;0.10;;;11.30;99.90;;;;;;4993143;28;20022;-75
2022/03/10 01:46:46;;;;;;;0.32;0.32;;;11.30;99.90;;;;;;4991676;28;20478;-75
2022/03/10 01:49:12;;;;;;;0.10;0.10;;;11.30;99.90;;;;;;4994392;28;20026;-73
2022/03/10 01:51:38;;;;;;;0.25;0.25;;;11.30;99.90;;;;;;4996321;28;20034;-73
2022/03/10 01:54:04;;;;;;;0.32;0.10;;;11.40;99.90;;;;;;4996396;28;20022;-73
2022/03/10 01:56:32;;;;;;;0.10;0.10;;;11.30;99.90;;;;;;4997056;28;20029;-74
2022/03/10 01:59:01;;;;;;;0.17;0.17;;;11.30;99.90;;;;;;4995212;28;20029;-75
2022/03/10 02:01:27;;;;;;;0.63;0.63;;;11.30;99.90;;;;;;4995835;28;20058;-75
2022/03/10 02:03:52;;;;;;;0.20;0.20;;;11.30;99.90;;;;;;4996108;28;20077;-73
2022/03/10 02:06:18;;;;;;;1.55;0.80;;;11.30;99.90;;;;;;4996389;28;20494;-75
2022/03/10 02:11:28;;;;;;;0.20;0.20;;;11.20;99.90;;;;;;4995518;28;20122;-75
2022/03/10 02:13:54;;;;;;;0.10;0.10;;;11.20;99.90;;;;;;4996443;28;20145;-75
2022/03/10 02:19:04;;;;;;;0.40;0.40;;;11.20;99.90;;;;;;4996503;28;20485;-76
2022/03/10 02:21:30;;;;;;;2.10;0.43;;;11.20;99.90;;;;;;4996415;28;20031;-76
2022/03/10 02:23:56;;;;;;;1.08;0.93;;;11.20;99.90;;;;;;4995660;28;20030;-75
2022/03/10 02:26:21;;;;;;;0.00;0.00;;;11.20;99.90;;;;;;4996173;28;20377;-73
2022/03/10 02:28:49;;;;;;;0.08;0.00;;;11.20;99.90;;;;;;4995226;28;20490;-73
2022/03/10 02:31:14;;;;;;;0.05;0.05;;;11.20;99.90;;;;;;4996094;28;20022;-75
2022/03/10 02:33:40;;;;;;;0.90;0.32;;;11.20;99.90;;;;;;4995907;28;20393;-75
2022/03/10 02:36:06;;;;;;;0.00;0.00;;;11.20;99.90;;;;;;4995836;28;20026;-75
2022/03/10 02:38:32;;;;;;;2.92;1.98;;;11.20;99.90;;;;;;4995183;28;20449;-76
2022/03/10 02:40:58;;;;;;;0.45;0.45;;;11.20;99.90;;;;;;4995664;28;20417;-74
2022/03/10 02:43:24;;;;;;;0.45;0.45;;;11.20;99.90;;;;;;4996273;28;20061;-73
2022/03/10 02:45:51;;;;;;;0.00;0.00;;;11.20;99.90;;;;;;4995617;28;20081;-75
2022/03/10 02:48:18;;;;;;;3.50;1.27;;;11.30;99.90;;;;;;4995637;28;20073;-73
2022/03/10 02:50:45;;;;;;;0.17;0.17;;;11.20;99.90;;;;;;4995295;28;20042;-74
2022/03/10 02:53:11;;;;;;;0.17;0.10;;;11.20;99.90;;;;;;4995327;28;20024;-73
2022/03/10 02:55:38;;;;;;;0.05;0.05;;;11.20;99.90;;;;;;4978880;28;20027;-73
2022/03/10 02:58:04;;;;;;;2.17;0.80;;;11.20;99.90;;;;;;4976337;28;20027;-75
2022/03/10 03:00:30;;;;;;;0.15;0.15;;;11.20;99.90;;;;;;4975224;28;20059;-73
2022/03/10 03:02:55;;;;;;;0.20;0.15;;;11.10;99.90;;;;;;4975878;28;20030;-73
2022/03/10 03:05:21;;;;;;;0.20;0.20;;;11.10;99.90;;;;;;4975731;28;20031;-73
2022/03/10 03:07:48;;;;;;;0.20;0.20;;;11.10;99.90;;;;;;4975785;28;20027;-73
2022/03/10 03:10:14;;;;;;;0.00;0.00;;;11.10;99.90;;;;;;4975540;28;20398;-75
2022/03/10 03:12:58;;;;;;;2.92;0.43;;;11.10;99.90;;;;;;4975072;28;20054;-75
2022/03/10 03:15:24;;;;;;;0.65;0.30;;;11.10;99.90;;;;;;4975905;28;20031;-73
2022/03/10 03:17:50;;;;;;;0.40;0.40;;;11.10;99.90;;;;;;4975365;28;20399;-74
2022/03/10 03:20:16;;;;;;;3.08;1.50;;;11.10;99.90;;;;;;4975941;28;20031;-74
2022/03/10 03:22:43;;;;;;;0.10;0.10;;;11.10;99.90;;;;;;4974788;28;20037;-73
2022/03/10 03:25:16;;;;;;;0.30;0.30;;;11.10;99.90;;;;;;4975310;28;20030;-76
2022/03/10 03:27:42;;;;;;;0.20;0.20;;;11.10;99.90;;;;;;4975432;28;20038;-75
2022/03/10 03:30:09;;;;;;;1.75;1.08;;;11.10;99.90;;;;;;4974257;28;20035;-75
2022/03/10 03:32:35;;;;;;;0.32;0.32;;;11.10;99.90;;;;;;4975462;28;20030;-74
2022/03/10 03:35:00;;;;;;;1.20;0.57;;;11.10;99.90;;;;;;4975215;28;20542;-75
2022/03/10 03:37:26;;;;;;;0.00;0.00;;;11.10;99.90;;;;;;4974237;28;20030;-76
2022/03/10 03:39:52;;;;;;;0.10;0.10;;;11.10;99.90;;;;;;4975322;28;20037;-75
2022/03/10 03:42:17;;;;;;;0.98;0.20;;;11.10;99.90;;;;;;4975109;28;20073;-75
2022/03/10 03:44:43;;;;;;;0.00;0.00;;;11.10;99.90;;;;;;4975021;28;20058;-75
2022/03/10 03:47:09;;;;;;;0.05;0.03;;;11.10;99.90;;;;;;4974511;28;20030;-73
2022/03/10 03:49:35;;;;;;;11.32;1.58;;;11.00;99.90;;;;;;4977746;28;20072;-75
2022/03/10 03:52:00;;;;;;;9.52;0.38;;;11.00;99.90;;;;;;4994506;28;20549;-75
2022/03/10 03:54:26;;;;;;;0.17;0.17;;;11.00;99.90;;;;;;4987583;28;20019;-75
2022/03/10 03:56:52;;;;;;;0.17;0.17;;;11.00;99.90;;;;;;4974988;28;20110;-73
2022/03/10 03:59:17;;;;;;;1.00;0.35;;;11.00;99.90;;;;;;4974991;28;20117;-75
2022/03/10 04:01:43;;;;;;;0.13;0.13;;;11.00;99.90;;;;;;4974715;28;20042;-73
2022/03/10 04:04:09;;;;;;;0.00;0.00;;;11.00;99.90;;;;;;4974905;28;20035;-74
2022/03/10 04:06:34;;;;;;;0.00;0.00;;;10.90;99.90;;;;;;4974639;28;20548;-76
2022/03/10 04:09:00;;;;;;;0.20;0.20;;;10.90;99.90;;;;;;4974802;28;20026;-76
2022/03/10 04:11:26;;;;;;;0.10;0.10;;;10.90;99.90;;;;;;4974017;28;20022;-75
2022/03/10 04:13:52;;;;;;;3.35;0.47;;;10.90;99.90;;;;;;4974252;28;20026;-75
2022/03/10 04:16:18;;;;;;;0.10;0.10;;;10.90;99.90;;;;;;4974343;28;20011;-75
2022/03/10 04:18:44;;;;;;;2.05;0.60;;;10.90;99.90;;;;;;4974550;28;20034;-76
2022/03/10 04:21:09;;;;;;;4.78;0.55;;;10.80;99.90;;;;;;4974856;28;20077;-75
2022/03/10 04:23:35;;;;;;;0.00;0.00;;;10.80;99.90;;;;;;4973613;28;20031;-74
2022/03/10 04:26:01;;;;;;;1.45;0.38;;;10.80;99.90;;;;;;4974741;28;20030;-75
2022/03/10 04:28:26;;;;;;;0.03;0.03;;;10.70;99.90;;;;;;4974801;28;20027;-73
2022/03/10 04:30:52;;;;;;;0.32;0.32;;;10.70;99.90;;;;;;4973863;28;20031;-75
2022/03/10 04:33:18;;;;;;;0.00;0.00;;;10.60;99.90;;;;;;4974773;28;20027;-75
2022/03/10 04:35:44;;;;;;;0.47;0.47;;;10.60;99.90;;;;;;4974365;28;20058;-76
2022/03/10 04:38:10;;;;;;;0.13;0.13;;;10.60;99.90;;;;;;4974665;28;20035;-75
2022/03/10 04:40:37;;;;;;;0.20;0.20;;;10.50;99.90;;;;;;4974020;28;20087;-75
2022/03/10 04:43:03;;;;;;;0.00;0.00;;;10.50;99.90;;;;;;4974724;28;20034;-76
2022/03/10 04:45:29;;;;;;;0.00;0.00;;;10.50;99.90;;;;;;4973260;28;20139;-74
2022/03/10 04:47:54;;;;;;;0.22;0.20;;;10.50;99.90;;;;;;4974283;28;20113;-75
2022/03/10 04:50:20;;;;;;;0.05;0.03;;;10.50;99.90;;;;;;4983206;28;20537;-76
2022/03/10 04:52:46;;;;;;;0.13;0.13;;;10.40;99.90;;;;;;4992303;28;20030;-75
2022/03/10 04:55:13;;;;;;;0.30;0.30;;;10.40;99.90;;;;;;4993172;28;20060;-76
2022/03/10 04:57:40;;;;;;;2.17;1.08;;;10.40;99.90;;;;;;4992982;28;20030;-75
2022/03/10 05:00:10;;;;;;;0.05;0.05;;;10.30;99.90;;;;;;4993439;28;20158;-73
2022/03/10 05:02:39;;;;;;;0.28;0.28;;;10.30;99.90;;;;;;4993615;28;20034;-75
2022/03/10 05:05:11;;;;;;;0.00;0.00;;;10.30;99.90;;;;;;4993635;28;20022;-74
2022/03/10 05:07:36;;;;;;;0.13;0.13;;;10.30;99.90;;;;;;4993442;28;20027;-75
2022/03/10 05:10:02;;;;;;;0.17;0.17;;;10.30;99.90;;;;;;4993427;28;20029;-75
2022/03/10 05:12:28;;;;;;;0.43;0.43;;;10.30;99.90;;;;;;4993304;28;20134;-75
2022/03/10 05:14:54;;;;;;;0.05;0.05;;;10.30;99.90;;;;;;4993569;28;20102;-74
2022/03/10 05:17:21;;;;;;;0.98;0.60;;;10.30;99.90;;;;;;4993120;28;20027;-75
2022/03/10 05:19:46;;;;;;;0.28;0.28;;;10.30;99.90;;;;;;4993350;28;20026;-75
2022/03/10 05:22:12;;;;;;;0.15;0.15;;;10.30;99.90;;;;;;4993495;28;20456;-75
2022/03/10 05:24:38;;;;;;;0.28;0.28;;;10.30;99.90;;;;;;4994747;28;20525;-75
2022/03/10 05:27:04;;;;;;;0.20;0.20;;;10.30;99.90;;;;;;4997028;28;20042;-73
2022/03/10 05:29:29;;;;;;;0.52;0.52;;;10.30;99.90;;;;;;4996849;28;20425;-76
2022/03/10 05:31:55;;;;;;;0.00;0.00;;;10.30;99.90;;;;;;4995857;28;20026;-75
2022/03/10 05:34:20;;;;;;;0.32;0.32;;;10.30;99.90;;;;;;4977700;28;20027;-75
2022/03/10 05:36:46;;;;;;;0.13;0.13;;;10.40;99.90;;;;;;4977715;28;20037;-72
2022/03/10 05:39:12;;;;;;;0.40;0.40;;;10.40;99.90;;;;;;4977377;28;20022;-75
2022/03/10 05:41:37;;;;;;;2.60;0.40;;;10.40;99.90;;;;;;4977171;28;20027;-76
2022/03/10 05:44:03;;;;;;;0.55;0.52;;;10.50;99.90;;;;;;4977238;28;20082;-74
2022/03/10 05:46:29;;;;;;;0.13;0.13;;;10.50;99.90;;;;;;4977469;28;20061;-72
2022/03/10 05:48:55;;;;;;;1.02;0.68;;;10.50;99.90;;;;;;4977525;28;20102;-77
2022/03/10 05:51:20;;;;;;;5.95;0.30;;;10.50;99.90;;;;;;4994422;28;20030;-75
2022/03/10 05:53:49;;;;;;;0.15;0.15;;;10.50;99.90;;;;;;4995874;28;20042;-75
2022/03/10 05:56:15;;;;;;;0.43;0.17;;;10.50;99.90;;;;;;4996601;28;20061;-76
2022/03/10 05:58:41;;;;;;;0.00;0.00;;;10.60;99.90;;;;;;4996841;28;20534;-73
2022/03/10 06:01:07;;;;;;;0.00;0.00;;;10.60;99.90;;;;;;4994818;28;20030;-75
2022/03/10 06:03:33;;;;;;;0.25;0.25;;;10.60;99.90;;;;;;4996606;28;20018;-76
2022/03/10 06:05:59;;;;;;;2.50;1.65;;;10.60;99.90;;;;;;4996390;28;20023;-75
2022/03/10 06:08:25;;;;;;;0.00;0.00;;;10.60;99.90;;;;;;4995151;28;20023;-75
2022/03/10 06:10:51;;;;;;;0.32;0.32;;;10.60;99.90;;;;;;4996336;28;20503;-75
2022/03/10 06:13:16;;;;;;;0.50;0.50;;;10.60;99.90;;;;;;4996351;28;20022;-73
2022/03/10 06:15:42;;;;;;;0.00;0.00;;;10.60;99.90;;;;;;4993105;28;20029;-73
2022/03/10 06:18:08;;;;;;;0.95;0.50;;;10.60;99.90;;;;;;4976332;28;20098;-75
2022/03/10 06:20:34;;;;;;;1.05;0.32;;;10.60;99.90;;;;;;4976749;28;20034;-73
2022/03/10 06:23:00;;;;;;;0.15;0.15;;;10.60;99.90;;;;;;4976772;28;20426;-72
2022/03/10 06:25:26;;;;;;;0.98;0.82;;;10.60;99.90;;;;;;4976399;28;20073;-75
2022/03/10 06:27:52;;;;;;;0.10;0.10;;;10.60;99.90;;;;;;4976560;28;20526;-73
2022/03/10 06:30:18;;;;;;;4.90;0.43;;;10.50;99.90;;;;;;4976517;28;20034;-75
2022/03/10 06:32:43;;;;;;;0.05;0.05;;;10.50;99.90;;;;;;4975564;28;20042;-72
2022/03/10 06:35:09;;;;;;;0.22;0.22;;;10.40;99.90;;;;;;4981587;28;20060;-75
2022/03/10 06:37:35;;;;;;;2.92;0.73;;;10.40;99.90;;;;;;4995015;28;20029;-73
2022/03/10 06:40:02;;;;;;;0.13;0.13;;;10.30;99.90;;;;;;4994577;28;20109;-76
2022/03/10 06:42:30;;;;;;;0.47;0.47;;;10.30;99.90;;;;;;4995206;28;20172;-75
2022/03/10 06:44:56;;;;;;;2.92;1.50;;;10.40;99.90;;;;;;4992093;28;20506;-72
2022/03/10 06:47:21;;;;;;;1.67;1.55;;;10.30;99.90;;;;;;4994799;28;20018;-71
2022/03/10 06:49:48;;;;;;;0.95;0.45;;;10.30;99.90;;;;;;4994281;28;20034;-71
2022/03/10 06:52:13;;;;;;;0.50;0.40;;;10.30;99.90;;;;;;4994913;28;20030;-75
2022/03/10 06:54:41;;;;;;;0.25;0.25;;;10.30;99.90;;;;;;4994758;28;20034;-76
2022/03/10 06:57:08;;;;;;;0.20;0.20;;;10.30;99.90;;;;;;4994910;28;20026;-76
2022/03/10 06:59:33;;;;;;;0.45;0.45;;;10.30;99.90;;;;;;4994299;28;20026;-73
2022/03/10 07:01:59;;;;;;;0.13;0.13;;;10.30;99.90;;;;;;4994112;28;20027;-72
2022/03/10 07:04:25;;;;;;;0.25;0.25;;;10.30;99.90;;;;;;4992645;28;20030;-74
2022/03/10 07:06:51;;;;;;;0.20;0.20;;;10.30;99.90;;;;;;4992531;28;20441;-72
2022/03/10 07:09:18;;;;;;;0.63;0.43;;;10.30;99.90;;;;;;4975559;28;20041;-75
2022/03/10 07:11:44;;;;;;;0.10;0.10;;;10.40;99.90;;;;;;4988937;28;20026;-75
2022/03/10 07:14:10;;;;;;;0.75;0.40;;;10.40;99.90;;;;;;4993592;28;20516;-75
2022/03/10 07:16:35;;;;;;;0.90;0.90;;;10.40;99.90;;;;;;4983842;28;20107;-75
2022/03/10 07:19:01;;;;;;;0.20;0.20;;;10.40;99.90;;;;;;4974500;28;20034;-72
2022/03/10 07:21:27;;;;;;;0.30;0.30;;;10.40;99.90;;;;;;4990852;28;20030;-75
2022/03/10 07:23:52;;;;;;;0.20;0.20;;;10.40;99.90;;;;;;4994191;28;20114;-75
2022/03/10 07:26:18;;;;;;;0.20;0.20;;;10.50;99.90;;;;;;4993198;28;20042;-75
2022/03/10 07:28:44;;;;;;;0.08;0.08;;;10.50;99.90;;;;;;4992493;28;20034;-71
2022/03/10 07:31:10;;;;;;;0.00;0.00;;;10.50;99.90;;;;;;4991724;28;20037;-72
2022/03/10 07:33:35;;;;;;;1.23;0.45;;;10.50;99.90;;;;;;4989015;28;20101;-72
2022/03/10 07:36:02;;;;;;;0.20;0.20;;;10.50;99.90;;;;;;4979258;28;20409;-72
2022/03/10 07:38:27;;;;;;;0.30;0.30;;;10.60;99.90;;;;;;4990530;28;20096;-73
2022/03/10 07:40:54;;;;;;;0.65;0.43;;;10.50;99.90;;;;;;4985718;28;20038;-75
2022/03/10 07:43:20;;;;;;;0.20;0.20;;;10.50;99.90;;;;;;4976933;28;20054;-76
2022/03/10 07:45:46;;;;;;;0.10;0.10;;;10.60;99.90;;;;;;4974113;28;20588;-72
2022/03/10 07:48:11;;;;;;;0.20;0.20;;;10.60;99.90;;;;;;4980742;28;20092;-75
2022/03/10 07:50:37;;;;;;;0.38;0.20;;;10.70;99.90;;;;;;4993320;28;20057;-75
2022/03/10 07:53:04;;;;;;;0.28;0.28;;;10.80;99.90;;;;;;4992595;28;20054;-76
2022/03/10 07:55:30;;;;;;;1.20;0.30;;;11.10;99.90;;;;;;4993392;28;20454;-76
2022/03/10 07:57:55;;;;;;;0.03;0.03;;;11.20;99.90;;;;;;4992175;28;20093;-77
2022/03/10 08:00:21;;;;;;;0.30;0.17;;;11.20;99.90;;;;;;4983240;28;20030;-75
2022/03/10 08:02:47;;;;;;;0.50;0.50;;;11.20;99.90;;;;;;4989160;28;20083;-76
2022/03/10 08:05:13;;;;;;;0.47;0.47;;;11.30;99.90;;;;;;4985293;28;20041;-73
2022/03/10 08:07:39;;;;;;;0.00;0.00;;;11.30;99.90;;;;;;4977964;28;20458;-75
2022/03/10 08:10:06;;;;;;;2.20;0.47;;;11.20;99.90;;;;;;4977832;28;20468;-73
2022/03/10 08:12:33;;;;;;;0.38;0.13;;;11.30;99.90;;;;;;4986234;28;20101;-75
2022/03/10 08:15:00;;;;;;;1.00;1.00;;;11.20;99.90;;;;;;4990094;28;20014;-75
2022/03/10 08:17:25;;;;;;;0.20;0.20;;;11.20;99.90;;;;;;5000394;28;20386;-75
2022/03/10 08:19:52;;;;;;;0.45;0.45;;;11.30;99.90;;;;;;4989440;28;20046;-75
2022/03/10 08:22:19;;;;;;;0.30;0.30;;;11.30;99.90;;;;;;4990972;28;20030;-72
2022/03/10 08:24:46;;;;;;;0.32;0.32;;;11.30;99.90;;;;;;4979970;28;20521;-74
2022/03/10 08:27:13;;;;;;;0.55;0.55;;;11.40;99.90;;;;;;4969694;28;20038;-71
2022/03/10 08:29:38;;;;;;;0.60;0.60;;;11.40;99.90;;;;;;4986867;28;20037;-74
2022/03/10 08:32:05;;;;;;;7.38;0.32;;;11.40;99.90;;;;;;4988791;28;20015;-75
2022/03/10 08:34:30;;;;;;;0.10;0.10;;;11.40;99.90;;;;;;4991385;28;20470;-75
2022/03/10 08:36:56;;;;;;;0.52;0.20;;;11.50;99.90;;;;;;4984814;28;20041;-75
2022/03/10 08:39:22;;;;;;;0.10;0.10;;;11.50;99.90;;;;;;4987310;28;20430;-75
2022/03/10 08:41:49;;;;;;;0.73;0.73;;;11.50;99.90;;;;;;4991766;28;20039;-75
2022/03/10 08:44:15;;;;;;;0.00;0.00;;;11.50;99.90;;;;;;4977103;28;20109;-75
2022/03/10 08:46:41;;;;;;;0.00;0.00;;;11.40;99.90;;;;;;4982694;28;20105;-71
2022/03/10 08:49:08;;;;;;;0.00;0.00;;;11.30;99.90;;;;;;4991974;28;20030;-71
2022/03/10 08:51:33;;;;;;;1.20;0.57;;;11.20;99.90;;;;;;4983896;28;20077;-72
2022/03/10 08:53:59;;;;;;;0.68;0.68;;;11.30;99.90;;;;;;4984951;28;20022;-72
2022/03/10 08:56:25;;;;;;;0.00;0.00;;;11.30;99.90;;;;;;4988791;28;20029;-72
2022/03/10 08:58:51;;;;;;;0.00;0.00;;;11.20;99.90;;;;;;4992329;28;20033;-76
2022/03/10 09:01:16;;;;;;;0.15;0.15;;;11.30;99.90;;;;;;4992708;28;20503;-76
2022/03/10 09:03:42;;;;;;;0.57;0.52;;;11.30;99.90;;;;;;4994780;28;20027;-76
2022/03/10 09:06:12;;;;;;;0.47;0.47;;;11.30;99.90;;;;;;4990484;28;20061;-76
2022/03/10 09:08:38;;;;;;;0.20;0.20;;;11.30;99.90;;;;;;4993688;28;20041;-76
2022/03/10 09:11:04;;;;;;;0.20;0.20;;;11.40;99.90;;;;;;4986201;28;20030;-73
2022/03/10 09:13:30;;;;;;;0.10;0.10;;;11.30;99.90;;;;;;4991136;28;20026;-75
2022/03/10 09:15:55;;;;;;;0.90;0.65;;;11.40;99.90;;;;;;4994447;28;20023;-72
2022/03/10 09:18:21;;;;;;;0.40;0.40;;;11.40;99.90;;;;;;4977532;28;20034;-76
2022/03/10 09:20:47;;;;;;;1.10;0.45;;;11.40;99.90;;;;;;4986843;28;20097;-75
2022/03/10 09:23:12;;;;;;;0.00;0.00;;;11.40;99.90;;;;;;4986855;28;20513;-76
2022/03/10 09:25:38;;;;;;;2.33;0.77;;;11.30;99.90;;;;;;4987208;28;20036;-76
2022/03/10 09:28:04;;;;;;;0.00;0.00;;;11.30;99.90;;;;;;4993773;28;20038;-76
2022/03/10 09:30:30;;;;;;;0.10;0.10;;;11.30;99.90;;;;;;4996029;28;20177;-77
2022/03/10 09:32:57;;;;;;;0.38;0.38;;;11.30;99.90;;;;;;5021397;28;20458;-76
2022/03/10 09:35:24;;;;;;;0.38;0.38;;;11.30;99.90;;;;;;4986773;28;20116;-73
2022/03/10 09:37:49;;;;;;;1.13;0.85;;;11.20;99.90;;;;;;4988457;28;20090;-76
2022/03/10 09:40:15;;;;;;;0.60;0.60;;;11.20;99.90;;;;;;4991368;28;20030;-77
2022/03/10 09:42:45;;;;;;;1.55;0.95;;;11.20;99.90;;;;;;4994931;28;20022;-76
2022/03/10 09:45:11;;;;;;;0.82;0.57;;;11.30;99.90;;;;;;4987336;28;20043;-77
2022/03/10 09:47:38;;;;;;;1.67;1.02;;;11.30;99.90;;;;;;4975250;28;20041;-76
2022/03/10 09:50:07;;;;;;;2.50;0.82;;;11.30;99.90;;;;;;4991202;28;20027;-76
2022/03/10 09:52:33;;;;;;;0.10;0.10;;;11.30;99.90;;;;;;4991196;28;20027;-76
2022/03/10 09:54:59;;;;;;;6.15;0.75;;;11.40;99.90;;;;;;4991619;28;20025;-72
2022/03/10 09:57:25;;;;;;;1.17;0.57;;;11.40;99.90;;;;;;4991176;28;20090;-73
2022/03/10 09:59:55;;;;;;;9.90;2.35;;;11.40;99.90;;;;;;4993964;28;20022;-72
2022/03/10 10:02:21;;;;;;;0.38;0.38;;;11.40;99.90;;;;;;4987006;28;20050;-76
2022/03/10 10:04:48;;;;;;;0.65;0.20;;;11.40;99.90;;;;;;4989283;28;20026;-72
2022/03/10 10:07:14;;;;;;;0.52;0.52;;;11.40;99.90;;;;;;4991252;28;20121;-77
2022/03/10 10:09:40;;;;;;;0.43;0.43;;;11.50;99.90;;;;;;4989190;28;20462;-77
2022/03/10 10:12:07;;;;;;;0.38;0.38;;;11.50;99.90;;;;;;4988136;28;20033;-72
2022/03/10 10:14:38;;;;;;;1.20;0.85;;;11.50;99.90;;;;;;4975308;28;20058;-76
2022/03/10 10:17:04;;;;;;;1.45;1.35;;;11.50;99.90;;;;;;5025805;28;20031;-73
2022/03/10 10:19:33;;;;;;;0.00;0.00;;;11.50;99.90;;;;;;4990434;28;20045;-77
2022/03/10 10:22:11;;;;;;;0.10;0.10;;;11.50;99.90;;;;;;4982872;28;20412;-77
2022/03/10 10:24:38;;;;;;;1.10;0.85;;;11.50;99.90;;;;;;5016428;28;20034;-76
2022/03/10 10:27:21;;;;;;;0.00;0.00;;;11.50;99.90;;;;;;4993830;28;20544;-76
2022/03/10 10:29:57;;;;;;;0.00;0.00;;;11.60;99.90;;;;;;4993875;28;20097;-77
2022/03/10 10:32:48;;;;;;;0.20;0.20;;;11.70;99.90;;;;;;4994180;28;20061;-76
2022/03/10 10:35:20;;;;;;;1.30;0.35;;;11.90;99.90;;;;;;4993660;28;20497;-76
2022/03/10 10:37:49;;;;;;;0.10;0.10;;;12.10;99.90;;;;;;4985323;28;20409;-73
2022/03/10 10:40:31;;;;;;;1.77;0.57;;;12.20;99.90;;;;;;4985928;28;20429;-72
2022/03/10 10:42:57;;;;;;;0.52;0.22;;;12.40;99.90;;;;;;4987134;28;20030;-72
2022/03/10 10:45:34;;;;;;;0.55;0.50;;;12.70;99.90;;;;;;4983659;28;20530;-72
2022/03/10 10:48:04;;;;;;;0.40;0.40;;;13.00;99.90;;;;;;4993395;28;20041;-75
2022/03/10 10:50:32;;;;;;;1.48;0.52;;;12.90;99.90;;;;;;4992464;28;20066;-76
2022/03/10 10:52:58;;;;;;;0.75;0.75;;;12.80;99.90;;;;;;4980177;28;20113;-75
2022/03/10 10:55:38;;;;;;;6.55;1.45;;;12.60;99.90;;;;;;5006018;28;20098;-76
2022/03/10 10:58:09;;;;;;;0.00;0.00;;;12.70;99.90;;;;;;4982310;28;20034;-76
2022/03/10 11:00:46;;;;;;;0.00;0.00;;;12.80;99.90;;;;;;4993360;28;20134;-76
2022/03/10 11:03:20;;;;;;;0.88;0.88;;;12.80;99.90;;;;;;4985350;28;20030;-75
2022/03/10 11:05:47;;;;;;;0.32;0.20;;;12.90;99.90;;;;;;4997072;28;20033;-75
2022/03/10 11:08:15;;;;;;;0.10;0.10;;;13.00;99.90;;;;;;4998598;28;20505;-76
2022/03/10 11:10:41;;;;;;;0.20;0.20;;;12.80;99.90;;;;;;4992514;28;20025;-76
2022/03/10 11:13:07;;;;;;;8.93;0.20;;;12.80;99.90;;;;;;4993769;28;20106;-72
2022/03/10 11:15:33;;;;;;;0.38;0.38;;;12.70;99.90;;;;;;4992469;28;20608;-76
2022/03/10 11:18:00;;;;;;;0.05;0.05;;;12.60;99.90;;;;;;4993079;28;20029;-72
2022/03/10 11:20:27;;;;;;;0.15;0.15;;;12.40;99.90;;;;;;4990041;28;20026;-72
2022/03/10 11:23:12;;;;;;;0.30;0.30;;;12.30;99.90;;;;;;4991402;28;20038;-71
2022/03/10 11:25:48;;;;;;;0.30;0.30;;;12.40;99.90;;;;;;4991773;28;20034;-77
2022/03/10 11:28:21;;;;;;;0.90;0.43;;;12.30;99.90;;;;;;4992014;28;20441;-77
2022/03/10 11:30:50;;;;;;;0.43;0.25;;;12.30;99.90;;;;;;4989531;28;20101;-76
2022/03/10 11:33:16;;;;;;;0.10;0.10;;;12.20;99.90;;;;;;4995476;28;20034;-76
2022/03/10 11:35:45;;;;;;;0.08;0.08;;;12.20;99.90;;;;;;4992523;28;20023;-73
2022/03/10 11:38:12;;;;;;;0.30;0.15;;;12.30;99.90;;;;;;4995351;28;20053;-73
2022/03/10 11:40:47;;;;;;;0.00;0.00;;;12.40;99.90;;;;;;4999261;28;20053;-73
2022/03/10 11:43:30;;;;;;;0.20;0.20;;;12.40;99.90;;;;;;5069458;28;20386;-75
2022/03/10 11:46:14;;;;;;;0.10;0.10;;;12.60;99.90;;;;;;5069819;28;20052;-74
2022/03/10 11:48:39;;;;;;;0.75;0.75;;;12.60;99.90;;;;;;5078916;28;20033;-75
2022/03/10 11:51:10;;;;;;;0.35;0.35;;;12.80;99.90;;;;;;5059556;28;20388;-75
2022/03/10 11:54:03;;;;;;;0.00;0.00;;;13.00;99.90;;;;;;5062942;28;20025;-72
2022/03/10 11:56:55;;;;;;;0.57;0.57;;;13.00;99.90;;;;;;5078058;28;20368;-75
2022/03/10 11:59:37;;;;;;;0.30;0.30;;;13.00;99.90;;;;;;5062496;28;20148;-73
2022/03/10 12:02:04;;;;;;;0.10;0.10;;;12.90;99.90;;;;;;5064787;28;20486;-72
2022/03/10 12:04:40;;;;;;;0.80;0.73;;;12.90;99.90;;;;;;5068721;28;20035;-75
2022/03/10 12:07:14;;;;;;;0.08;0.08;;;13.00;99.90;;;;;;5071480;28;20047;-75
2022/03/10 12:09:41;;;;;;;0.25;0.25;;;13.00;99.90;;;;;;5067568;28;20036;-73
2022/03/10 12:12:20;;;;;;;0.20;0.20;;;12.90;99.90;;;;;;5070328;28;20085;-72
2022/03/10 12:14:47;;;;;;;0.20;0.17;;;12.90;99.90;;;;;;5060751;28;20122;-73
2022/03/10 12:17:51;;;;;;;0.25;0.25;;;13.00;99.90;;;;;;5063968;28;20075;-74
2022/03/10 12:20:19;;;;;;;1.55;1.23;;;13.00;99.90;;;;;;5062112;28;20055;-72
2022/03/10 12:23:03;;;;;;;0.70;0.22;;;13.00;99.90;;;;;;5067168;28;20025;-72
2022/03/10 12:25:30;;;;;;;0.35;0.28;;;13.00;99.90;;;;;;5066252;28;20059;-75
2022/03/10 12:27:57;;;;;;;2.28;0.20;;;13.10;99.90;;;;;;5066644;28;20521;-73
2022/03/10 12:30:26;;;;;;;1.65;0.75;;;13.10;99.90;;;;;;5075922;28;20150;-75
2022/03/10 12:32:54;;;;;;;4.28;0.30;;;13.20;99.90;;;;;;5067237;28;20039;-75
2022/03/10 12:35:25;;;;;;;0.20;0.20;;;13.10;99.90;;;;;;5060187;28;20031;-74
2022/03/10 12:37:50;;;;;;;0.10;0.10;;;13.00;99.90;;;;;;5058596;28;20029;-71
2022/03/10 12:40:21;;;;;;;0.10;0.10;;;12.90;99.90;;;;;;5055186;28;20087;-75
2022/03/10 12:42:47;;;;;;;0.90;0.45;;;13.00;99.90;;;;;;5056524;28;20119;-74
2022/03/10 12:45:20;;;;;;;0.35;0.25;;;12.90;99.90;;;;;;5058364;28;20140;-75
2022/03/10 12:47:55;;;;;;;0.00;0.00;;;13.00;99.90;;;;;;5053979;28;20026;-75
2022/03/10 12:50:21;;;;;;;0.20;0.10;;;13.00;99.90;;;;;;5065574;28;20056;-70
2022/03/10 12:52:46;;;;;;;0.10;0.10;;;13.00;99.90;;;;;;5063074;28;20100;-73
2022/03/10 12:55:12;;;;;;;0.40;0.32;;;13.00;99.90;;;;;;5041914;28;20188;-71